• Join FlightAware (Why Join?)
  • Login
  • US Flag 
10:40PM EST


 

Airport Tracker/Info


-or-


 

Live Flight TrackerFlight Track Log ✈ EGF3793 ✈ 15-May-2013 ✈ KORD - KOKC

Flight Track Log - Related Links

Times and Time Zones

All times are in EDT time to prevent confusion due to time zone crossing. See the EGF3793 flight status page for this flight to view local times or setup timezone preferences in your user account.

Time Position Orientation Groundspeed Altitude Reporting Facility
EDT Latitude Longitude Course Direction KTS MPH feet Rate Location/Type
11:19PM 41.9833 -87.8833 201° Southwest 174 200 1,600  Level Chicago TRACON
11:20PM 41.9333 -87.9000 194° South 216 249 4,700 2,580 Climbing Chicago TRACON
11:22PM 41.6525 -88.0542 203° Southwest  Level FlightAware Approximate
11:23PM 41.5438 -88.1059 197° South  Level FlightAware Approximate
11:23PM 41.8017 -87.9783 204° Southwest 282 325 10,000  Level Chicago Center
11:24PM 41.4331 -88.1501 194° South  Level FlightAware Approximate
11:24PM 41.7244 -88.0172 201° Southwest 296 341 12,200  Level Chicago Center
11:25PM 41.3232 -88.1967 201° Southwest  Level FlightAware Approximate
11:25PM 41.6147 -88.0742 201° Southwest 361 415 13,600  Level Chicago Center
11:26PM 41.5111 -88.1236 200° South 400 460 15,100 1,560 Climbing Chicago Center
11:27PM 41.4056 -88.1725 199° South 421 484 16,800 1,800 Climbing Chicago Center
11:28PM 41.2967 -88.2228 199° South 425 489 18,800 1,920 Climbing Chicago Center
11:29PM 41.1864 -88.2744 199° South 425 489 20,800 1,860 Climbing Chicago Center
11:30PM 41.0767 -88.3244 199° South 421 484 22,600 1,680 Climbing Chicago Center
11:31PM 40.9411 -88.3850 199° South 428 493 24,300 1,500 Climbing Chicago Center
11:32PM 40.8250 -88.4372 199° South 439 505 25,700 1,320 Climbing Chicago Center
11:33PM 40.7083 -88.4917 199° South 446 513 27,100 1,320 Climbing Chicago Center
11:34PM 40.5997 -88.5628 206° Southwest 449 517 28,500 1,320 Climbing Chicago Center
11:35PM 40.5083 -88.6669 221° Southwest 439 505 29,900 1,260 Climbing Chicago Center
11:36PM 40.4106 -88.7756 220° Southwest 441 507 31,100 1,080 Climbing Chicago Center
11:37PM 40.3178 -88.8811 221° Southwest 441 507 32,200 1,080 Climbing Chicago Center
11:38PM 40.2231 -88.9867 220° Southwest 442 509 33,300 1,080 Climbing Chicago Center
11:39PM 40.1300 -89.0889 220° Southwest 438 504 34,400 1,080 Climbing Chicago Center
11:40PM 40.0261 -89.1728 212° Southwest 448 516 35,500 1,020 Climbing Chicago Center
11:41PM 39.9308 -89.2067 195° South 440 506 36,400 1,140 Climbing Kansas City Center
11:42PM 39.7894 -89.2556 195° South 436 502 37,800 1,080 Climbing Kansas City Center
11:43PM 39.6819 -89.2989 197° South 427 491 38,700 780 Climbing Kansas City Center
11:44PM 39.5761 -89.3556 202° Southwest 416 479 39,400 540 Climbing Kansas City Center
11:45PM 39.4775 -89.4264 209° Southwest 408 470 39,800 240 Climbing Kansas City Center
11:46PM 39.3897 -89.5200 220° Southwest 407 468 40,000 60 Climbing Kansas City Center
11:47PM 39.3092 -89.6228 225° Southwest 408 470 40,000  Level Kansas City Center
11:48PM 39.2478 -89.7475 238° Southwest 410 472 40,000  Level Kansas City Center
11:49PM 39.1717 -89.8956 236° Southwest 417 480 40,000  Level Kansas City Center
11:50PM 39.1192 -89.9964 236° Southwest 419 482 40,000  Level Kansas City Center
11:51PM 39.0397 -90.1453 236° Southwest 420 483 40,000  Level Kansas City Center
11:52PM 38.9744 -90.2697 236° Southwest 422 486 40,000  Level Kansas City Center
11:53PM 38.9167 -90.3833 237° Southwest 421 484 40,000  Level Kansas City Center
11:54PM 38.8475 -90.5108 235° Southwest 428 493 40,000  Level Kansas City Center
11:55PM 38.7661 -90.6656 236° Southwest 426 490 40,000  Level Kansas City Center
11:56PM 38.7122 -90.7764 238° Southwest 422 486 40,000  Level Kansas City Center
11:57PM 38.6469 -90.9044 237° Southwest 432 497 40,000  Level Kansas City Center
11:58PM 38.5653 -91.0617 236° Southwest 442 509 40,000  Level Kansas City Center
11:59PM 38.4992 -91.1889 236° Southwest 439 505 40,000  Level Kansas City Center
12:00AM 38.4336 -91.3158 237° Southwest 435 501 40,000  Level Kansas City Center
12:01AM 38.3703 -91.4406 237° Southwest 423 487 40,000  Level Kansas City Center
12:02AM 38.3033 -91.5669 236° Southwest 424 488 40,000  Level Kansas City Center
12:03AM 38.2367 -91.6944 236° Southwest 428 493 40,000  Level Kansas City Center
12:04AM 38.1694 -91.8219 236° Southwest 431 496 40,000  Level Kansas City Center
12:05AM 38.1025 -91.9497 236° Southwest 440 506 40,000  Level Kansas City Center
12:06AM 38.0350 -92.0772 236° Southwest 449 517 40,000  Level Kansas City Center
12:07AM 37.9689 -92.2031 236° Southwest 435 501 40,000  Level Kansas City Center
12:08AM 37.9003 -92.3308 236° Southwest 438 504 40,000  Level Kansas City Center
12:09AM 37.8311 -92.4553 235° Southwest 435 501 40,000  Level Kansas City Center
12:10AM 37.7525 -92.6056 237° Southwest 429 494 40,000  Level Kansas City Center
12:11AM 37.6844 -92.7306 235° Southwest 432 497 40,000  Level Kansas City Center
12:12AM 37.6247 -92.8503 238° Southwest 429 494 40,000  Level Kansas City Center
12:13AM 37.5667 -92.9839 241° Southwest 431 496 40,000  Level Kansas City Center
12:14AM 37.5086 -93.1178 241° Southwest 433 498 40,000  Level Kansas City Center
12:15AM 37.4492 -93.2514 241° Southwest 435 501 40,000  Level Kansas City Center
12:16AM 37.3897 -93.3842 241° Southwest 436 502 40,000  Level Kansas City Center
12:17AM 37.3303 -93.5178 241° Southwest 436 502 40,000  Level Kansas City Center
12:18AM 37.2719 -93.6519 241° Southwest 437 503 40,000  Level Kansas City Center
12:19AM 37.2114 -93.7850 240° Southwest 438 504 40,000  Level Kansas City Center
12:20AM 37.1389 -93.9456 241° Southwest 439 505 40,000  Level Kansas City Center
12:21AM 37.0806 -94.0753 241° Southwest 442 509 40,000  Level Kansas City Center
12:22AM 37.0200 -94.2081 240° Southwest 441 507 40,000  Level Kansas City Center
12:23AM 36.9594 -94.3417 240° Southwest 441 507 40,000  Level Kansas City Center
12:24AM 36.8983 -94.4728 240° Southwest 438 504 40,000  Level Kansas City Center
12:26AM 36.8392 -94.6025 240° Southwest 433 498 40,000  Level Kansas City Center
12:27AM 36.7797 -94.7331 240° Southwest 433 498 40,000  Level Kansas City Center
12:28AM 36.7206 -94.8608 240° Southwest 428 493 40,000  Level Kansas City Center
12:29AM 36.6608 -94.9892 240° Southwest 427 491 40,000  Level Kansas City Center
12:30AM 36.5919 -95.1350 240° Southwest 426 490 40,000 -600 Level Kansas City Center
12:31AM 36.5325 -95.2625 240° Southwest 427 491 38,800 -1,560 Descending Kansas City Center
12:32AM 36.4742 -95.3869 240° Southwest 423 487 36,900 -1,860 Descending Kansas City Center
12:33AM 36.4144 -95.5069 238° Southwest 416 479 35,100 -1,740 Descending Kansas City Center
12:34AM 36.3544 -95.6381 240° Southwest 437 503 33,400 -1,740 Descending Kansas City Center
12:35AM 36.2944 -95.7639 239° Southwest 439 505 31,600 -1,800 Descending Kansas City Center
12:36AM 36.2311 -95.8958 239° Southwest 444 511 29,800 -1,800 Descending Kansas City Center
12:37AM 36.1642 -96.0336 239° Southwest 461 531 28,000 -1,800 Descending Kansas City Center
12:38AM 36.1000 -96.1664 239° Southwest 456 525 26,200 -1,800 Descending Kansas City Center
12:39AM 36.0358 -96.2994 239° Southwest 452 520 24,400 -1,860 Descending Kansas City Center
12:40AM 35.9678 -96.4403 239° Southwest 465 535 22,500 -1,920 Descending Kansas City Center
12:41AM 35.9031 -96.5717 239° Southwest 455 524 20,600 -1,980 Descending Kansas City Center
12:42AM 35.8403 -96.7003 239° Southwest 443 510 18,500 -2,220 Descending Kansas City Center
12:43AM 35.7800 -96.8228 239° Southwest 427 491 16,200 -2,580 Descending Kansas City Center
12:44AM 35.7378 -96.9431 247° West 393 452 13,400 -2,880 Descending Kansas City Center
12:45AM 35.6975 -97.0794 250° West 365 420 10,400 -2,400 Descending Kansas City Center
12:46AM 35.6742 -97.1728 253° West 300 345 8,600 -2,040 Descending Kansas City Center
12:47AM 35.6511 -97.2600 252° West 274 315 6,400 -1,980 Descending Kansas City Center
12:48AM 35.6189 -97.3675 250° West 244 281 4,200 -1,080 Descending Fort Worth Center
12:49AM 35.6003 -97.4417 253° West 223 257 4,000 -120 Descending Fort Worth Center
12:50AM 35.5814 -97.5131 252° West 225 259 4,000 -60 Level Fort Worth Center
12:51AM 35.5561 -97.5769 244° Southwest 209 241 3,900 -120 Descending Fort Worth Center